Kalaheo, HI (96741)

9:16 AM HST on September 17, 2014 (GMT -1000)
Koloa Landing - Whaler's Cove | Change Station
CLOSE
Current Station
Personal Weather Station
Location: Koloa, HI
Elevation: 25 ft
Nearby Weather Stations

Elev 25 ft 21.88 °N, 159.47 °W | Updated 4 seconds ago

Partly Cloudy
Partly Cloudy
85.1 °F
Feels Like 91 °F
N
0.4
Wind Variable Wind from ESE
Gusts 2.5 mph

Today
High -- | Low -- °F
--% Chance of Precip.
Yesterday
High -- | Low -- °F
Precip. -- in
6:25 AM 6:39 PM
Waning Crescent, 34% visible
Pressure 29.99 in
Visibility 10.0 miles
Clouds Few 2100 ft
Heat Index 91 °F
Dew Point 72 °F
Humidity 64%
Rainfall 0.00 in
Snow Depth Not available.
UV 3 out of 12
Pollen Not available.
Air Quality Not available.
Flu Activity Not available.
METAR PHLI 171853Z 01006KT 10SM FEW021 29/21 A3000 RMK AO2 SLP155 T02890211

More Conditions Fewer Conditions

Pressure 29.99 in
Visibility 10.0 miles
Clouds Few 2100 ft
Heat Index 91 °F
Dew Point 72 °F
Humidity 64%
Rainfall 0.00 in
Snow Depth Not available.
UV 3 out of 12
Pollen Not available.
Air Quality Not available.
Flu Activity Not available.
METAR PHLI 171853Z 01006KT 10SM FEW021 29/21 A3000 RMK AO2 SLP155 T02890211

More Conditions Fewer Conditions

10-Day Weather Forecast

Almanac

Astronomy

Sep. 17, 2014 Rise Set
Actual Time 6:25 AM HST 6:39 PM HST
Civil Twilight 6:03 AM HST 7:01 PM HST
Nautical Twilight 5:37 AM HST 7:27 PM HST
Astronomical Twilight 5:11 AM HST 7:53 PM HST
Moon 1:05 AM HST 2:28 PM HST
Length of Visible Light 12h 58m
Length of Day
12h 13m
Tomorrow will be 1m 15s shorter.
Waning Crescent, 34% of the Moon is Illuminated
Today
Waning Crescent
Sep 24
New
Oct 1
First Quarter
Oct 8
Full
Oct 15
Last Quarter

Today's Extremes

State Highs State Lows

Community

WunderPhotos

Upload Photos

1,754,131 photos uploaded!

Nearby

Snow Depth

Station Depth Elevation
No new snow has been reported.

Earthquake Activity

City Distance Mag. Time & Date
No recent earthquake activity has been reported nearby.
Minimum magnitude displayed is 2.5.

Coastal Water Temperatures

Place Temperature
No Stations Reporting

Nearby Weather Stations